• Join FlightAware (Why Join?)
  • Login
  • US Flag 
11:52PM EDT


 

Airport Tracker/Info


-or-


 

Live Flight TrackerFlight Track Log ✈ AVN11 ✈ 12-Oct-2013 ✈ YSSY / SYD - NVVV / VLI

Flight Track Log - Related Links

Times and Time Zones

All times are in EDT time to prevent confusion due to time zone crossing. See the AVN11 flight status page for this flight to view local times or setup timezone preferences in your user account.

Time Position Orientation Groundspeed Altitude Reporting Facility
EDT Latitude Longitude Course Direction KTS MPH feet Rate Location/Type
05:28AM -33.9578 151.1904 17° North 145 167  Level FlightAware ADS-B (YRAY)
05:28AM -33.9434 151.1865 347° North 151 174 800 2,520 Climbing FlightAware ADS-B (YRAY)
05:28AM -33.9394 151.1860 354° North 149 171 1,100 3,000 Climbing FlightAware ADS-B
05:28AM -33.9364 151.1864 North 146 168 1,300 1,800 Climbing FlightAware ADS-B (YRAY)
05:28AM -33.9355 151.1867 14° North 147 169 1,400 1,080 Climbing FlightAware ADS-B
05:28AM -33.9304 151.1906 33° Northeast 151 174 1,500 1,200 Climbing FlightAware ADS-B (YRAY)
05:29AM -33.9285 151.1941 57° Northeast 155 178 1,600 1,320 Climbing FlightAware ADS-B
05:29AM -33.9276 151.1981 74° East 161 185 1,700 1,200 Climbing FlightAware ADS-B (YRAY)
05:29AM -33.9275 151.2012 88° East 166 191 1,800 1,200 Climbing FlightAware ADS-B
05:29AM -33.9286 151.2070 104° East 169 194 1,900 1,320 Climbing FlightAware ADS-B (YRAY)
05:29AM -33.9305 151.2110 119° Southeast 172 198 2,000 1,140 Climbing FlightAware ADS-B
05:29AM -33.9364 151.2245 118° Southeast 179 206 2,300 1,140 Climbing FlightAware ADS-B (YRAY)
05:29AM -33.9384 151.2344 104° East 183 211 2,500 960 Climbing FlightAware ADS-B (YRAY)
05:29AM -33.9385 151.2426 91° East 189 217 2,600 1,020 Climbing FlightAware ADS-B
05:30AM -33.9381 151.2600 89° East 209 241 3,000 1,320 Climbing FlightAware ADS-B
05:30AM -33.9377 151.2784 88° East 210 242 3,300 1,380 Climbing FlightAware ADS-B
05:30AM -33.9369 151.2966 87° East 239 275 3,700 1,020 Climbing FlightAware ADS-B
05:30AM -33.9359 151.3159 87° East 253 291 3,800 1,020 Climbing FlightAware ADS-B (YRAY)
05:31AM -33.9351 151.3409 88° East 275 316 4,200 1,020 Climbing FlightAware ADS-B
05:31AM -33.9302 151.3685 78° East 278 320 4,400 900 Climbing FlightAware ADS-B
05:31AM -33.9278 151.3752 67° East 296 341 4,500 960 Climbing FlightAware ADS-B
05:31AM -33.9158 151.4065 65° Northeast 318 366 4,800 1,620 Climbing FlightAware ADS-B
05:32AM -33.9012 151.4460 66° East 326 375 5,700 2,160 Climbing FlightAware ADS-B
05:32AM -33.8957 151.4609 66° East 330 380 6,200 2,040 Climbing FlightAware ADS-B
05:32AM -33.8818 151.4988 66° East 330 380 6,800 2,040 Climbing FlightAware ADS-B
05:33AM -33.8759 151.5147 66° East 341 392 7,300 2,220 Climbing FlightAware ADS-B
05:33AM -33.8510 151.5822 66° East 351 404 8,600 2,220 Climbing FlightAware ADS-B
05:33AM -33.8377 151.6179 66° East 356 410 9,300 2,280 Climbing FlightAware ADS-B
05:34AM -33.8152 151.6775 66° East 368 423 10,600 2,520 Climbing FlightAware ADS-B
05:35AM -33.7926 151.7377 66° East 376 433 12,000 2,700 Climbing FlightAware ADS-B
05:35AM -33.7580 151.8306 66° East 389 448 14,300 2,700 Climbing FlightAware ADS-B
05:36AM -33.7290 151.9003 63° Northeast 395 455 15,800 2,640 Climbing FlightAware ADS-B
05:37AM -33.6817 151.9722 63° Northeast 395 455 17,600 2,580 Climbing Aus ATC (RADAR)
05:37AM -33.6640 151.9990 63° Northeast 404 465 18,300 2,520 Climbing FlightAware
05:37AM -33.6578 152.0070 47° Northeast 406 467 18,500 2,160 Climbing FlightAware ADS-B
05:38AM -33.6190 152.0630 50° Northeast 406 467 19,800 2,280 Climbing FlightAware
05:38AM -33.5590 152.1490 50° Northeast 428 493 21,600 2,400 Climbing FlightAware
05:38AM -33.5530 152.1583 50° Northeast 426 490 21,700 1,860 Climbing Aus ATC (RADAR)
05:39AM -33.5128 152.2159 50° Northeast 427 491 22,700 1,980 Climbing Aus ATC (RADAR)
05:39AM -33.5140 152.2140 50° Northeast 434 499 22,800 2,460 Climbing FlightAware
05:39AM -33.4740 152.2710 50° Northeast 435 501 24,000 2,400 Climbing FlightAware
05:40AM -33.4596 152.2926 51° Northeast 432 497 24,400 2,040 Climbing FlightAware ADS-B
05:40AM -33.4164 152.3546 51° Northeast 430 495 25,500 2,040 Climbing Aus ATC (RADAR)
05:40AM -33.3991 152.3795 51° Northeast 439 505 26,000 1,740 Climbing FlightAware ADS-B
05:41AM -33.3350 152.4710 50° Northeast 448 516 27,300 1,500 Climbing FlightAware
05:42AM -33.2980 152.5240 50° Northeast 453 521 28,000 1,200 Climbing FlightAware
05:42AM -33.2440 152.6010 50° Northeast 459 528 28,700 960 Climbing FlightAware
05:43AM -33.1860 152.6830 50° Northeast 480 552 29,300 900 Climbing FlightAware
05:44AM -33.1340 152.7570 50° Northeast 485 558 29,900 900 Climbing FlightAware
05:44AM -33.0820 152.8320 50° Northeast 499 574 30,400 840 Climbing FlightAware
05:45AM -33.0320 152.9020 50° Northeast 506 582 30,900 960 Climbing FlightAware
05:45AM -32.9730 152.9850 50° Northeast 508 585 31,600 1,080 Climbing FlightAware
05:46AM -32.9190 153.0610 50° Northeast 519 597 32,200 900 Climbing FlightAware
05:47AM -32.8650 153.1370 50° Northeast 525 604 32,700 720 Climbing FlightAware
05:47AM -32.8220 153.1970 50° Northeast 527 606 33,000 840 Climbing FlightAware
05:48AM -32.7530 153.2940 50° Northeast 532 612 33,700 1,080 Climbing FlightAware
05:48AM -32.6990 153.3690 49° Northeast 528 608 34,400 1,200 Climbing FlightAware
05:49AM -32.6510 153.4360 49° Northeast 528 608 35,000 900 Climbing FlightAware
05:49AM -32.6323 153.4623 49° Northeast 519 597 35,000 720 Level Aus ATC (RADAR)
05:50AM -32.5870 153.5250 50° Northeast 537 618 35,500 660 Climbing FlightAware
05:50AM -32.5196 153.6190 50° Northeast 525 604 35,800 540 Climbing Aus ATC (RADAR)
05:50AM -32.5180 153.6200 50° Northeast 542 624 35,900 660 Climbing FlightAware
05:51AM -32.4624 153.6979 50° Northeast 528 608 36,200 780 Climbing Aus ATC (RADAR)
05:51AM -32.4570 153.7060 50° Northeast 544 626 36,400 1,320 Climbing FlightAware
05:51AM -32.4120 153.7670 50° Northeast 535 616 37,000 1,020 Climbing FlightAware
05:51AM -32.3976 153.7876 50° Northeast 525 604 37,000  Level Aus ATC (RADAR)
05:52AM -32.3510 153.8520 50° Northeast 528 608 37,000  Level FlightAware
05:52AM -32.3439 153.8620 50° Northeast 529 609 37,000  Level Aus ATC (RADAR)
05:53AM -32.2950 153.9290 49° Northeast 529 609 37,000  Level FlightAware
05:53AM -32.2380 154.0070 49° Northeast 529 609 37,000  Level FlightAware
05:54AM -32.1810 154.0840 49° Northeast 529 609 37,000  Level FlightAware
05:54AM -32.1260 154.1600 49° Northeast 527 606 37,000  Level FlightAware
05:55AM -32.0650 154.2430 49° Northeast 526 605 37,000  Level FlightAware
05:56AM -32.0160 154.3090 49° Northeast 525 604 37,000  Level FlightAware
05:56AM -31.9540 154.3940 49° Northeast 524 603 37,000  Level FlightAware
05:57AM -31.8890 154.4820 49° Northeast 523 602 37,000  Level FlightAware
05:57AM -31.8230 154.5720 49° Northeast 522 601 37,000  Level FlightAware
05:58AM -31.7638 154.6510 49° Northeast 520 598 37,000  Level Aus ATC (RADAR)
05:58AM -31.7680 154.6460 49° Northeast 521 600 37,000  Level FlightAware
05:59AM -31.7159 154.7159 49° Northeast 501 577 37,000  Level Aus ATC (RADAR)
05:59AM -31.7130 154.7190 49° Northeast 522 601 37,000  Level FlightAware
05:59AM -31.6360 154.8220 49° Northeast 523 602 37,000  Level FlightAware
06:00AM -31.5860 154.8900 49° Northeast 523 602 37,000  Level FlightAware
06:01AM -31.5050 154.9970 49° Northeast 524 603 37,000  Level FlightAware
06:01AM -31.4773 155.0350 49° Northeast 524 603 37,000  Level Aus ATC (RADAR)
06:02AM -31.4274 155.1006 49° Northeast 511 588 37,000  Level Aus ATC (RADAR)
06:02AM -31.4540 155.0640 49° Northeast 524 603 37,000  Level FlightAware
06:02AM -31.3711 155.1756 49° Northeast 509 586 37,000  Level Aus ATC (RADAR)
06:02AM -31.4040 155.1280 49° Northeast 524 603 37,000  Level FlightAware
06:03AM -31.3530 155.1940 49° Northeast 524 603 37,000  Level FlightAware
06:03AM -31.3002 155.2703 49° Northeast 526 605 37,000  Level Aus ATC (RADAR)
06:03AM -31.2489 155.3367 49° Northeast 512 589 37,000  Level Aus ATC (RADAR)
06:03AM -31.3020 155.2610 49° Northeast 524 603 37,000  Level FlightAware
06:04AM -31.1929 155.4115 49° Northeast 509 586 37,000  Level Aus ATC (RADAR)
06:04AM -31.1970 155.4060 49° Northeast 530 610 37,000  Level FlightAware
06:05AM -31.1275 155.4971 49° Northeast 510 587 37,000  Level Aus ATC (RADAR)
06:05AM -31.1470 155.4710 49° Northeast 530 610 37,000  Level FlightAware
06:05AM -31.0950 155.5380 48° Northeast 530 610 37,000  Level FlightAware
06:06AM -31.0430 155.6050 48° Northeast 530 610 37,000  Level FlightAware
06:07AM -30.9930 155.6700 48° Northeast 530 610 37,000  Level FlightAware
06:07AM -30.9430 155.7350 48° Northeast 530 610 37,000  Level FlightAware
06:08AM -30.8930 155.8000 48° Northeast 530 610 37,000  Level FlightAware
06:08AM -30.7739 155.9621 48° Northeast 501 577 37,000  Level Aus ATC (RADAR)
06:08AM -30.8420 155.8650 48° Northeast 530 610 37,000  Level FlightAware
06:09AM -30.7910 155.9320 48° Northeast 530 610 37,000  Level FlightAware
06:10AM -30.7390 155.9990 48° Northeast 530 610 37,000  Level FlightAware
06:10AM -30.6920 156.0600 48° Northeast 530 610 37,000  Level FlightAware
06:11AM -30.5459 156.2651 48° Northeast 519 597 37,000  Level Aus ATC (RADAR)
06:11AM -30.6300 156.1390 48° Northeast 530 610 37,000  Level FlightAware
06:11AM -30.5800 156.2040 48° Northeast 530 610 37,000  Level FlightAware
06:12AM -30.5300 156.2690 48° Northeast 530 610 37,000  Level FlightAware
06:13AM -30.4800 156.3330 48° Northeast 530 610 37,000  Level FlightAware
06:13AM -30.4300 156.3980 48° Northeast 530 610 37,000 120 Level FlightAware
06:14AM -30.2162 156.6959 48° Northeast 523 602 37,200 120 Climbing Aus ATC (RADAR)
06:15AM -30.1597 156.7693 48° Northeast 522 601 37,200  Level Aus ATC (RADAR)
06:15AM -30.0959 156.8528 49° Northeast 520 598 37,200  Level Aus ATC (RADAR)
06:16AM -30.0477 156.9152 48° Northeast 519 597 37,200  Level Aus ATC (RADAR)
06:16AM -29.9922 156.9870 48° Northeast 515 593 37,200  Level Aus ATC (RADAR)
06:17AM -29.9296 157.0689 49° Northeast 511 588 37,200  Level Aus ATC (RADAR)
06:18AM -29.8814 157.1312 48° Northeast 514 592 37,200  Level Aus ATC (RADAR)
06:18AM -29.8011 157.2343 48° Northeast 515 593 37,200  Level Aus ATC (RADAR)
06:19AM -29.7452 157.3057 48° Northeast 515 593 37,200  Level Aus ATC (RADAR)
06:20AM -29.6898 157.3769 48° Northeast 513 590 37,200  Level Aus ATC (RADAR)
06:20AM -29.6182 157.4685 48° Northeast 512 589 37,200  Level Aus ATC (RADAR)
06:21AM -29.5619 157.5399 48° Northeast 512 589 37,200  Level Aus ATC (RADAR)
06:21AM -29.5138 157.6011 48° Northeast 514 592 37,200  Level Aus ATC (RADAR)
06:22AM -29.4587 157.6719 48° Northeast 511 588 37,200  Level Aus ATC (RADAR)
06:22AM -29.4105 157.7326 48° Northeast 511 588 37,200 -240 Level Aus ATC (RADAR)
06:23AM -29.3550 157.8020 48° Northeast 513 590 37,000  Descending FlightAware
06:24AM -29.2895 157.8855 48° Northeast 514 592 37,200  Climbing Aus ATC (RADAR)
06:24AM -29.2720 157.9070 48° Northeast 513 590 37,000 -240 Descending FlightAware
06:25AM -29.2230 157.9690 48° Northeast 513 590 37,000  Level FlightAware
06:25AM -29.1750 158.0310 48° Northeast 513 590 37,000  Level FlightAware
06:26AM -29.1260 158.0930 48° Northeast 513 590 37,000 120 Level FlightAware
06:26AM -29.0271 158.2094 48° Northeast 520 598 37,200  Climbing Aus ATC (RADAR)
06:26AM -29.0770 158.1550 48° Northeast 513 590 37,000 -360 Descending FlightAware
06:27AM -29.0290 158.2160 48° Northeast 513 590 37,000  Level FlightAware
06:28AM -28.9800 158.2780 48° Northeast 513 590 37,000  Level FlightAware
06:28AM -28.9320 158.3400 49° Northeast 513 590 37,000  Level FlightAware
06:29AM -28.8830 158.4010 47° Northeast 513 590 37,000  Level FlightAware
06:29AM -28.8330 158.4650 48° Northeast 513 590 37,000  Level FlightAware
06:30AM -28.7840 158.5260 48° Northeast 513 590 37,000  Level FlightAware
06:31AM -28.7360 158.5880 49° Northeast 513 590 37,000  Level FlightAware
06:31AM -28.6870 158.6490 48° Northeast 513 590 37,000  Level FlightAware
06:31AM -28.4965 158.8726 225° Southwest 37,000  Level Aus ATC (Calculated)
06:32AM -28.6390 158.7110 48° Northeast 513 590 37,000  Level FlightAware
06:32AM -28.5900 158.7720 48° Northeast 513 590 37,000  Level FlightAware
06:33AM -28.3148 159.0971 226° Southwest 37,000  Level Aus ATC (Calculated)
06:33AM -28.3148 159.0971 226° Southwest 37,000  Level Aus ATC (Calculated)
06:33AM -28.5410 158.8340 48° Northeast 513 590 37,000  Level FlightAware
06:34AM -28.1610 159.2852 40° Northeast 37,000  Level Aus ATC (Calculated)
06:36AM -28.0586 159.3839 40° Northeast  Level Estimated
06:37AM -27.9594 159.4791 40° Northeast  Level Estimated
06:38AM -27.8602 159.5742 40° Northeast  Level Estimated
06:38AM -27.8180 159.7017 47° Northeast 37,000  Level Aus ATC (Calculated)
06:39AM -27.7305 159.8073 360° North 37,000  Level Aus ATC (Calculated)
06:39AM -27.7305 159.8073 40° Northeast 37,000  Level Aus ATC (Calculated)
06:41AM -27.6022 159.9278 40° Northeast  Level Estimated
06:42AM -27.5022 160.0215 40° Northeast  Level Estimated
06:43AM -27.4021 160.1151 40° Northeast  Level Estimated
06:44AM -27.3020 160.2084 40° Northeast  Level Estimated
06:44AM -27.2203 160.4175 280° West 37,000  Level Aus ATC (Calculated)
06:45AM -27.2017 160.3016 40° Northeast  Level Estimated
06:45AM -27.0817 160.5818 269° West 37,000  Level Aus ATC (Calculated)
06:46AM -27.0823 160.5434 39° Northeast  Level Estimated
06:46AM -27.0167 160.6587 23° Northeast 37,000  Level Aus ATC (Calculated)
06:47AM -26.9754 160.6780 39° Northeast  Level Estimated
06:48AM -26.8950 160.7683 39° Northeast  Level Estimated
06:48AM -26.8274 160.8817 330° Northwest 37,000  Level Aus ATC (Calculated)
06:49AM -26.7935 160.8595 39° Northeast  Level Estimated
06:50AM -26.7205 160.9769 39° Northeast  Level Estimated
06:51AM -26.6186 161.0673 38° Northeast  Level Estimated
06:51AM -26.6555 161.0831 38° Northeast 37,000  Level Aus ATC (Calculated)
06:52AM -26.5534 161.1731 38° Northeast  Level Estimated
06:53AM -26.4511 161.2629 38° Northeast  Level Estimated
06:53AM -26.4475 161.3257 38° Northeast 37,000  Level Aus ATC (Calculated)
06:54AM -26.3449 161.4149 38° Northeast  Level Estimated
06:55AM -26.2422 161.5039 38° Northeast  Level Estimated
06:56AM -26.1395 161.5927 38° Northeast  Level Estimated
06:57AM -26.0367 161.6814 38° Northeast  Level Estimated
06:58AM -25.9339 161.7699 38° Northeast  Level Estimated
06:59AM -25.8310 161.8583 38° Northeast  Level Estimated
07:00AM -25.7280 161.9465 38° Northeast  Level Estimated
07:01AM -25.6250 162.0346 38° Northeast  Level Estimated
07:02AM -25.5220 162.1226 38° Northeast  Level Estimated
07:03AM -25.4189 162.2103 38° Northeast  Level Estimated
07:03AM -25.3946 162.5332 36° Northeast 37,000  Level Aus ATC (Calculated)
07:04AM -25.2895 162.6179 36° Northeast  Level Estimated
07:05AM -25.1843 162.7025 36° Northeast  Level Estimated
07:06AM -25.0791 162.7868 36° Northeast  Level Estimated
07:07AM -24.9738 162.8711 36° Northeast  Level Estimated
07:08AM -24.8685 162.9552 36° Northeast  Level Estimated
07:09AM -24.7631 163.0392 36° Northeast  Level Estimated
07:10AM -24.6577 163.1230 36° Northeast  Level Estimated
07:11AM -24.5523 163.2067 36° Northeast  Level Estimated
07:12AM -24.4468 163.2902 36° Northeast  Level Estimated
07:13AM -24.3413 163.3736 36° Northeast  Level Estimated
07:14AM -24.2357 163.4569 36° Northeast  Level Estimated
07:15AM -24.1300 163.5400 36° Northeast  Level Estimated
07:16AM -24.0244 163.6230 36° Northeast  Level Estimated
07:17AM -23.9186 163.7059 36° Northeast  Level Estimated
07:18AM -23.8129 163.7886 36° Northeast  Level Estimated
07:19AM -23.7071 163.8712 36° Northeast  Level Estimated
07:20AM -23.6012 163.9536 36° Northeast  Level Estimated
07:21AM -23.4953 164.0359 35° Northeast  Level Estimated
07:22AM -23.3894 164.1181 35° Northeast  Level Estimated
07:23AM -23.2834 164.2002 35° Northeast  Level Estimated
07:24AM -23.1773 164.2821 35° Northeast  Level Estimated
07:25AM -23.0713 164.3639 35° Northeast  Level Estimated
07:26AM -22.9652 164.4456 35° Northeast  Level Estimated
07:27AM -22.8590 164.5271 35° Northeast  Level Estimated
07:28AM -22.7528 164.6085 35° Northeast  Level Estimated
07:29AM -22.6466 164.6898 35° Northeast  Level Estimated
07:30AM -22.5403 164.7709 35° Northeast  Level Estimated
07:31AM -22.4340 164.8520 35° Northeast  Level Estimated
07:32AM -22.3276 164.9329 35° Northeast  Level Estimated
07:33AM -22.2212 165.0137 35° Northeast  Level Estimated
07:34AM -22.1148 165.0943 35° Northeast  Level Estimated
07:35AM -22.0083 165.1749 35° Northeast  Level Estimated
07:36AM -21.9018 165.2553 35° Northeast  Level Estimated
07:37AM -21.7952 165.3356 35° Northeast  Level Estimated
07:38AM -21.6886 165.4158 35° Northeast  Level Estimated
07:39AM -21.5820 165.4958 35° Northeast  Level Estimated
07:40AM -21.4753 165.5758 35° Northeast  Level Estimated
07:41AM -21.3686 165.6556 35° Northeast  Level Estimated
07:42AM -21.2619 165.7353 35° Northeast  Level Estimated
07:43AM -21.1551 165.8149 35° Northeast  Level Estimated
07:44AM -21.0483 165.8944 35° Northeast  Level Estimated
07:45AM -20.9414 165.9737 35° Northeast  Level Estimated
07:46AM -20.8345 166.0530 35° Northeast  Level Estimated
07:47AM -20.7276 166.1321 35° Northeast  Level Estimated
07:48AM -20.6206 166.2112 35° Northeast  Level Estimated
07:49AM -20.5136 166.2901 35° Northeast  Level Estimated
07:50AM -20.4066 166.3689 35° Northeast  Level Estimated
07:51AM -20.2995 166.4476 35° Northeast  Level Estimated
07:52AM -20.1924 166.5262 35° Northeast  Level Estimated
07:53AM -20.0853 166.6047 35° Northeast  Level Estimated
07:54AM -19.9781 166.6830 35° Northeast  Level Estimated
07:55AM -19.8709 166.7613 34° Northeast  Level Estimated
07:56AM -19.7636 166.8395 34° Northeast  Level Estimated
07:57AM -19.6563 166.9175 34° Northeast  Level Estimated
07:58AM -19.5490 166.9955 34° Northeast  Level Estimated
07:59AM -19.4417 167.0733 34° Northeast  Level Estimated
08:00AM -19.3343 167.1511 34° Northeast  Level Estimated
08:01AM -19.2269 167.2287 34° Northeast  Level Estimated
08:02AM -19.1194 167.3062 34° Northeast  Level Estimated
08:03AM -19.0120 167.3837 34° Northeast  Level Estimated
08:04AM -18.9044 167.4610 34° Northeast  Level Estimated
08:05AM -18.7969 167.5383 34° Northeast  Level Estimated
08:06AM -18.6893 167.6154 34° Northeast  Level Estimated
08:07AM -18.5817 167.6924 34° Northeast  Level Estimated
08:08AM -18.4741 167.7694 34° Northeast  Level Estimated
08:09AM -18.3664 167.8462 34° Northeast  Level Estimated
08:10AM -18.2587 167.9230 34° Northeast  Level Estimated
08:11AM -18.1510 167.9996 34° Northeast  Level Estimated
08:12AM -18.0432 168.0762 34° Northeast  Level Estimated
08:13AM -17.9354 168.1527 34° Northeast  Level Estimated
08:14AM -17.8276 168.2291 34° Northeast  Level Estimated
08:15AM -17.7198 168.3053 34° Northeast  Level Estimated
08:16AM -17.6993 168.3198 34° Northeast  Level Estimated
08:17AM -17.6993 168.3198 143° Southeast  Level Estimated
08:18AM -17.6993 168.3198 37° Northeast  Level Estimated
08:19AM -17.6993 168.3198 143° Southeast  Level Estimated
08:20AM -17.6993 168.3198 37° Northeast  Level Estimated
08:21AM -17.6993 168.3198 143° Southeast  Level Estimated
08:22AM -17.6993 168.3198 37° Northeast  Level Estimated
08:23AM -17.6993 168.3198 143° Southeast  Level Estimated
08:24AM -17.6993 168.3198 37° Northeast  Level Estimated
08:25AM -17.6993 168.3198 143° Southeast  Level Estimated
08:26AM -17.6993 168.3198 37° Northeast  Level Estimated
08:27AM -17.6993 168.3198 143° Southeast  Level Estimated
08:28AM -17.6993 168.3198 37° Northeast  Level Estimated
08:29AM -17.6993 168.3198 143° Southeast  Level Estimated
08:30AM -17.6993 168.3198 37° Northeast  Level Estimated
08:31AM -17.6993 168.3198 143° Southeast  Level Estimated
08:32AM -17.6993 168.3198 37° Northeast  Level Estimated
08:33AM -17.6993 168.3198 143° Southeast  Level Estimated
08:34AM -17.6993 168.3198 37° Northeast  Level Estimated
08:35AM -17.6993 168.3198 143° Southeast  Level Estimated